Flight Track Log - Related Links

Times and Time Zones

All times are in EDT time to prevent confusion due to time zone crossing. See the N420CL flight status page for this flight to view local times or setup timezone preferences in your user account.


Time Position Orientation Groundspeed Altitude Reporting Facility
EDT Latitude Longitude Course Direction KTS MPH feet Rate Location/Type
Sun 04:48:53 PM 26.0017 -81.7822 North 273 314 3,500  Level Miami Center
Sun 04:49:53 PM 26.0764 -81.7922 353° North 284 327 6,600 3,100 Climbing Miami Center
Sun 04:50:53 PM 26.1500 -81.7769 11° North 279 321 9,700 1,650 Climbing Miami Center
Sun 04:51:53 PM 26.2242 -81.7497 18° North 340 391 9,900 1,000 Climbing Miami Center
Sun 04:52:53 PM 26.3100 -81.7394 North 326 375 11,700 1,950 Climbing Miami Center
Sun 04:53:53 PM 26.4003 -81.7247 North 321 369 13,800 2,300 Climbing Miami Center
Sun 04:54:00 PM 30.9731 -81.4173 North  Level FlightAware Approximate
Sun 04:54:53 PM 26.4947 -81.7078 North 326 375 16,300  Level Miami Center
Sun 04:55:53 PM 26.5853 -81.6906 10° North 332 382 18,000 1,700 Climbing Miami Center
Sun 04:56:53 PM 26.6817 -81.6758 North 332 382 19,700 1,750 Climbing Miami Center
Sun 04:57:53 PM 26.7783 -81.6567 10° North 337 388 21,500 1,700 Climbing Miami Center
Sun 04:58:53 PM 26.8750 -81.6397 North 343 395 23,100 1,550 Climbing Miami Center
Sun 04:59:53 PM 26.9864 -81.6186 10° North 359 413 24,600 1,400 Climbing Miami Center
Sun 05:00:53 PM 27.0892 -81.5994 North 365 420 25,900 1,200 Climbing Miami Center
Sun 05:01:53 PM 27.1964 -81.5806 North 377 434 27,000 1,100 Climbing Miami Center
Sun 05:02:53 PM 27.2950 -81.5636 North 388 447 28,100 1,100 Climbing Miami Center
Sun 05:03:53 PM 27.4042 -81.5447 North 388 447 29,200 1,150 Climbing Miami Center
Sun 05:04:53 PM 27.5258 -81.5239 North 394 453 30,400 1,000 Climbing Miami Center
Sun 05:05:53 PM 27.6372 -81.5025 10° North 394 453 31,200 800 Climbing Miami Center
Sun 05:06:53 PM 27.7506 -81.4814 North 399 459 32,000 900 Climbing Miami Center
Sun 05:07:53 PM 27.8514 -81.4619 10° North 404 465 33,000 900 Climbing Miami Center
Sun 05:08:53 PM 27.9625 -81.4453 North 409 471 33,800 935 Climbing Miami Center
Sun 05:10:27 PM 28.1564 -81.4400 North 434 499 35,400 1,084 Climbing Jacksonville Center
Sun 05:11:28 PM 28.2711 -81.4431 359° North 412 474 36,600 1,050 Climbing Jacksonville Center
Sun 05:12:27 PM 28.3733 -81.4417 North 400 460 37,500 900 Climbing Jacksonville Center
Sun 05:13:28 PM 28.4967 -81.4494 357° North 405 466 38,400 744 Climbing Jacksonville Center
Sun 05:14:28 PM 28.6050 -81.4525 359° North 400 460 39,000 303 Climbing Jacksonville Center
Sun 05:15:27 PM 28.7219 -81.4581 358° North 405 466 39,000  Level Jacksonville Center
Sun 05:16:39 PM 28.8661 -81.4631 358° North 417 480 39,000  Level Jacksonville Center
Sun 05:17:40 PM 28.9850 -81.4636 360° North 423 487 39,000  Level Jacksonville Center
Sun 05:18:40 PM 29.1061 -81.4689 358° North 423 487 39,000  Level Jacksonville Center
Sun 05:19:39 PM 29.2231 -81.4744 358° North 423 487 39,000  Level Jacksonville Center
Sun 05:20:40 PM 29.3442 -81.4728 North 423 487 39,000  Level Jacksonville Center
Sun 05:21:40 PM 29.4653 -81.4661 North 423 487 39,000  Level Jacksonville Center
Sun 05:22:40 PM 29.5883 -81.4619 North 423 487 39,000  Level Jacksonville Center
Sun 05:23:40 PM 29.7094 -81.4578 North 428 493 39,000  Level Jacksonville Center
Sun 05:24:40 PM 29.8325 -81.4511 North 434 499 39,000  Level Jacksonville Center
Sun 05:25:39 PM 29.9514 -81.4469 North 434 499 39,000  Level Jacksonville Center
Sun 05:26:40 PM 30.0703 -81.4428 North 434 499 39,000  Level Jacksonville Center
Sun 05:27:40 PM 30.1914 -81.4361 North 434 499 39,000  Level Jacksonville Center
Sun 05:28:40 PM 30.3125 -81.4344 North 434 499 39,000  Level Jacksonville Center
Sun 05:29:40 PM 30.4231 -81.4281 North 434 499 39,000  Level Jacksonville Center
Sun 05:30:40 PM 30.5419 -81.4261 North 434 499 39,000  Level Jacksonville Center
Sun 05:31:39 PM 30.6653 -81.4194 North 434 499 39,000  Level Jacksonville Center
Sun 05:32:39 PM 30.7842 -81.4150 North 434 499 39,000  Level Jacksonville Center
Sun 05:33:40 PM 30.9031 -81.4133 North 434 499 39,000  Level Jacksonville Center
Sun 05:34:40 PM 31.0219 -81.4089 North 434 499 39,000  Level Jacksonville Center
Sun 05:35:40 PM 31.1431 -81.4047 North 429 494 39,000  Level Jacksonville Center
Sun 05:36:40 PM 31.2661 -81.3978 North 429 494 39,000  Level Jacksonville Center
Sun 05:37:40 PM 31.3808 -81.3911 North 422 486 39,000  Level Jacksonville Center
Sun 05:38:40 PM 31.5167 -81.3889 North 422 486 39,000  Level Jacksonville Center
Sun 05:39:40 PM 31.6356 -81.3822 North 422 486 39,000  Level Jacksonville Center
Sun 05:40:40 PM 31.7461 -81.3803 North 422 486 39,000  Level Jacksonville Center
Sun 05:41:40 PM 31.8797 -81.3733 North 428 493 39,000  Level Jacksonville Center
Sun 05:42:40 PM 32.0069 -81.3711 North 451 519 39,000  Level Jacksonville Center
Sun 05:43:40 PM 32.1303 -81.3642 North 445 512 39,000  Level Jacksonville Center
Sun 05:44:40 PM 32.2553 -81.3597 North 440 506 39,000  Level Jacksonville Center
Sun 05:45:40 PM 32.3764 -81.3553 North 440 506 39,000  Level Jacksonville Center
Sun 05:46:40 PM 32.4911 -81.3533 North 440 506 39,000  Level Jacksonville Center
Sun 05:47:39 PM 32.6269 -81.3483 North 440 506 39,000  Level Jacksonville Center
Sun 05:48:40 PM 32.7519 -81.3414 North 440 506 39,000  Level Jacksonville Center
Sun 05:49:40 PM 32.8772 -81.3342 North 440 506 39,000  Level Jacksonville Center
Sun 05:50:39 PM 33.0025 -81.3322 North 440 506 39,000  Level Jacksonville Center
Sun 05:51:40 PM 33.1297 -81.3275 North 440 506 39,000  Level Jacksonville Center
Sun 05:52:40 PM 33.2569 -81.3228 North 445 512 39,000  Level Jacksonville Center
Sun 05:53:40 PM 33.3842 -81.3181 North 445 512 39,000  Level Jacksonville Center
Sun 05:54:40 PM 33.4969 -81.3133 North 450 518 39,000  Level Jacksonville Center
Sun 05:55:40 PM 33.6261 -81.2986 North 455 524 39,000  Level Jacksonville Center
Sun 05:56:40 PM 33.7531 -81.2739 North 460 529 39,000  Level Jacksonville Center
Sun 05:57:40 PM 33.8819 -81.2464 10° North 465 535 39,000  Level Jacksonville Center
Sun 05:58:40 PM 34.0092 -81.2342 North 465 535 39,000  Level Jacksonville Center
Sun 06:00:57 PM 34.3125 -81.2019 North 457 526 39,000  Level Atlanta Center
Sun 06:01:57 PM 34.4414 -81.1850 North 464 534 39,000  Level Atlanta Center
Sun 06:02:57 PM 34.5686 -81.1833 North 459 528 39,000  Level Atlanta Center
Sun 06:03:57 PM 34.6856 -81.1792 North 459 528 39,000  Level Atlanta Center
Sun 06:04:57 PM 34.8169 -81.1772 North 459 528 39,000  Level Atlanta Center
Sun 06:05:57 PM 34.9400 -81.1756 North 454 522 39,000 200 Level Atlanta Center
Sun 06:06:57 PM 35.0672 -81.1711 North 454 522 39,400 550 Climbing Atlanta Center
Sun 06:07:57 PM 35.1964 -81.1694 North 454 522 40,100 700 Climbing Atlanta Center
Sun 06:08:57 PM 35.3194 -81.1675 North 459 528 40,800 450 Climbing Atlanta Center
Sun 06:09:57 PM 35.4447 -81.1606 North 452 520 41,000 100 Climbing Atlanta Center
Sun 06:10:57 PM 35.5781 -81.1586 North 452 520 41,000  Level Atlanta Center
Sun 06:11:57 PM 35.7219 -81.1561 North 466 536 41,000  Level Atlanta Center
Sun 06:12:57 PM 35.8472 -81.1567 360° North 484 557 41,000  Level Atlanta Center
Sun 06:13:57 PM 35.9764 -81.1547 North 470 541 41,000  Level Atlanta Center
Sun 06:14:57 PM 36.1078 -81.1525 North 465 535 41,000  Level Atlanta Center
Sun 06:15:57 PM 36.2328 -81.1506 North 459 528 41,000  Level Atlanta Center
Sun 06:16:57 PM 36.3683 -81.1483 North 459 528 41,000  Level Atlanta Center
Sun 06:19:11 PM 36.6725 -81.1433 North 479 551 41,000  Level Indianapolis Center
Sun 06:20:12 PM 36.8006 -81.1406 North 475 547 41,000  Level Indianapolis Center
Sun 06:21:14 PM 36.9317 -81.1400 360° North 480 552 41,000  Level Indianapolis Center
Sun 06:22:16 PM 37.0617 -81.1378 North 479 551 41,000  Level Indianapolis Center
Sun 06:23:18 PM 37.2172 -81.1339 North 479 551 41,000  Level Indianapolis Center
Sun 06:24:19 PM 37.3481 -81.1333 360° North 480 552 41,000  Level Indianapolis Center
Sun 06:25:21 PM 37.4794 -81.1300 North 483 556 41,000  Level Indianapolis Center
Sun 06:26:23 PM 37.6369 -81.1275 North 483 556 41,000  Level Indianapolis Center
Sun 06:27:24 PM 37.7686 -81.1244 North 484 557 41,000  Level Indianapolis Center
Sun 06:28:26 PM 37.8892 -81.0875 14° North 492 566 41,000  Level Indianapolis Center
Sun 06:29:28 PM 38.0489 -81.0344 15° North 494 568 41,000  Level Indianapolis Center
Sun 06:30:29 PM 38.1819 -80.9900 15° North 496 571 41,000  Level Indianapolis Center
Sun 06:31:31 PM 38.3153 -80.9450 15° North 498 573 41,000  Level Indianapolis Center
Sun 06:32:33 PM 38.4494 -80.8997 15° North 501 577 41,000 -293 Level Indianapolis Center
Sun 06:33:34 PM 38.5839 -80.8525 15° North 504 580 40,400 -829 Descending Indianapolis Center
Sun 06:34:36 PM 38.7192 -80.8064 15° North 505 581 39,300 -1,161 Descending Indianapolis Center
Sun 06:35:38 PM 38.8508 -80.7600 15° North 497 572 38,000 -1,366 Descending Indianapolis Center
Sun 06:36:39 PM 39.0147 -80.7033 15° North 510 587 36,500 -1,268 Descending Indianapolis Center
Sun 06:37:41 PM 39.1525 -80.6569 15° North 513 590 35,400 -726 Descending Indianapolis Center
Sun 06:38:43 PM 39.2922 -80.6078 15° North 519 597 35,000 -194 Descending Indianapolis Center
Sun 06:39:45 PM 39.4294 -80.5603 15° North 513 590 35,000  Level Indianapolis Center
Sun 06:40:46 PM 39.5686 -80.5142 14° North 517 595 35,000  Level Indianapolis Center
Sun 06:41:48 PM 39.7314 -80.4561 15° North 508 585 35,000 -492 Level Cleveland Center
Sun 06:42:48 PM 39.8669 -80.4100 15° North 508 585 34,000 -1,950 Descending Cleveland Center
Sun 06:43:48 PM 40.0044 -80.3608 15° North 508 585 31,100 -2,900 Descending Cleveland Center
Sun 06:44:48 PM 40.1461 -80.3114 15° North 515 593 28,200 -2,700 Descending Cleveland Center
Sun 06:45:48 PM 40.2856 -80.2619 15° North 515 593 25,700 -2,650 Descending Cleveland Center
Sun 06:46:48 PM 40.4208 -80.2122 16° North 509 586 22,900 -2,900 Descending Cleveland Center
Sun 06:47:48 PM 40.5481 -80.1650 16° North 490 564 19,900 -2,950 Descending Cleveland Center
Sun 06:48:48 PM 40.6686 -80.1233 15° North 462 532 17,000 -2,950 Descending Cleveland Center
Sun 06:49:48 PM 40.7789 -80.0814 16° North 434 499 14,000 -2,500 Descending Cleveland Center
Sun 06:50:48 PM 40.8747 -80.0475 15° North 402 463 12,000 -1,650 Descending Cleveland Center
Sun 06:51:48 PM 40.9600 -80.0139 17° North 358 412 10,700 -1,450 Descending Cleveland Center
Sun 06:52:48 PM 41.0350 -79.9886 14° North 311 358 9,100 -2,050 Descending Cleveland Center
Sun 06:53:48 PM 41.0975 -79.9658 15° North 261 300 6,600 -2,400 Descending Cleveland Center
Sun 06:54:48 PM 41.1661 -79.9406 16° North 236 272 4,300 -1,350 Descending Cleveland Center
Sun 06:55:48 PM 41.2264 -79.9150 18° North 224 258 3,900 -550 Descending Cleveland Center
Sun 06:56:48 PM 41.2844 -79.8894 18° North 224 258 3,200 -350 Descending Cleveland Center
Sun 06:57:48 PM 41.3364 -79.8558 26° Northeast 219 252 3,200 -100 Level Cleveland Center
Sun 06:58:48 PM 41.3781 -79.8250 29° Northeast 187 215 3,000 -200 Descending Cleveland Center

Login

Don't have an account? Register now (free) for customized features, flight alerts, and more!